createdAt,value
2023-01-18T00:00:28.239Z,52.70
2023-01-18T00:03:00.656Z,57.08
2023-01-18T00:05:34.146Z,54.90
2023-01-18T00:08:06.268Z,47.97
2023-01-18T00:10:38.619Z,52.03
2023-01-18T00:13:10.903Z,51.58
2023-01-18T00:15:42.857Z,51.13
2023-01-18T00:18:14.807Z,49.83
2023-01-18T00:20:46.765Z,42.80
2023-01-18T00:23:18.720Z,55.38
2023-01-18T00:25:50.653Z,57.20
2023-01-18T00:28:23.431Z,47.45
2023-01-18T00:30:55.693Z,54.53
2023-01-18T00:33:27.627Z,53.67
2023-01-18T00:36:02.496Z,60.17
2023-01-18T00:38:34.407Z,57.35
2023-01-18T00:41:06.396Z,61.42
2023-01-18T00:43:41.159Z,72.30
2023-01-18T00:46:19.115Z,69.30
2023-01-18T00:48:52.992Z,68.18
2023-01-18T00:51:25.826Z,60.42
2023-01-18T00:53:57.821Z,65.07
2023-01-18T00:56:29.717Z,77.22
2023-01-18T00:59:01.691Z,60.38
2023-01-18T01:01:33.714Z,63.67
2023-01-18T01:04:24.289Z,59.03
2023-01-18T01:06:56.262Z,55.05
2023-01-18T01:09:30.515Z,55.97
2023-01-18T01:12:20.993Z,58.88
2023-01-18T01:15:11.603Z,54.15
2023-01-18T01:18:02.261Z,50.45
2023-01-18T01:20:52.837Z,56.08
2023-01-18T01:23:43.578Z,47.95
2023-01-18T01:28:51.793Z,44.88
2023-01-18T01:31:23.690Z,46.85
2023-01-18T01:33:55.631Z,48.15
2023-01-18T01:36:28.774Z,48.45
2023-01-18T01:39:01.042Z,47.80
2023-01-18T01:41:34.790Z,54.47
2023-01-18T01:44:20.353Z,54.50
2023-01-18T01:47:23.765Z,49.58
2023-01-18T01:50:02.695Z,44.78
2023-01-18T01:52:37.570Z,40.65
2023-01-18T01:55:21.582Z,45.83
2023-01-18T01:57:56.594Z,45.10
2023-01-18T02:00:28.781Z,41.60
2023-01-18T02:03:06.145Z,41.08
2023-01-18T02:05:44.096Z,38.58
2023-01-18T02:08:22.765Z,40.50
2023-01-18T02:10:54.871Z,40.08
2023-01-18T02:13:27.211Z,42.42
2023-01-18T02:16:19.300Z,38.88
2023-01-18T02:19:08.830Z,37.53
2023-01-18T02:21:47.523Z,35.72
2023-01-18T02:24:37.939Z,38.70
2023-01-18T02:27:25.945Z,34.67
2023-01-18T02:30:05.418Z,34.55
2023-01-18T02:32:56.358Z,35.17
2023-01-18T02:35:52.690Z,36.35
2023-01-18T02:38:41.562Z,35.35
2023-01-18T02:42:06.221Z,34.95
2023-01-18T02:45:04.957Z,34.58
2023-01-18T02:47:37.863Z,33.05
2023-01-18T02:50:10.737Z,30.75
2023-01-18T02:52:49.973Z,33.33
2023-01-18T02:55:39.281Z,30.48
2023-01-18T02:58:24.532Z,33.13
2023-01-18T03:01:12.327Z,33.22
2023-01-18T03:03:48.017Z,33.63
2023-01-18T03:06:21.889Z,30.27
2023-01-18T03:08:55.573Z,36.20
2023-01-18T03:11:40.290Z,35.10
2023-01-18T03:14:36.903Z,33.92
2023-01-18T03:17:21.307Z,31.73
2023-01-18T03:20:08.784Z,32.05
2023-01-18T03:23:24.950Z,29.50
2023-01-18T03:25:58.102Z,28.58
2023-01-18T03:28:53.751Z,32.22
2023-01-18T03:31:59.603Z,30.60
2023-01-18T03:34:38.843Z,28.20
2023-01-18T03:37:16.820Z,29.17
2023-01-18T03:39:57.387Z,30.95
2023-01-18T03:42:50.672Z,27.83
2023-01-18T03:45:31.010Z,31.30
2023-01-18T03:48:03.685Z,29.23
2023-01-18T03:50:54.105Z,29.35
2023-01-18T03:53:39.456Z,29.17
2023-01-18T03:56:23.176Z,28.40
2023-01-18T03:58:57.908Z,28.90
2023-01-18T04:01:29.973Z,27.45
2023-01-18T04:04:02.142Z,28.27
2023-01-18T04:06:34.339Z,28.50
2023-01-18T04:09:06.796Z,27.33
2023-01-18T04:11:38.824Z,27.80
2023-01-18T04:14:10.792Z,28.98
2023-01-18T04:16:42.743Z,25.92
2023-01-18T04:19:14.688Z,26.30
2023-01-18T04:21:46.699Z,25.98
2023-01-18T04:24:18.955Z,24.58
2023-01-18T04:26:50.994Z,26.42
2023-01-18T04:29:23.086Z,25.25
2023-01-18T04:31:55.479Z,25.38
2023-01-18T04:34:27.388Z,24.42
2023-01-18T04:36:59.471Z,23.83
2023-01-18T04:39:31.408Z,23.67
2023-01-18T04:42:03.397Z,21.60
2023-01-18T04:44:35.356Z,21.65
2023-01-18T04:47:07.261Z,21.02
2023-01-18T04:49:39.197Z,26.08
2023-01-18T04:52:11.172Z,24.15
2023-01-18T04:54:44.068Z,21.20
2023-01-18T04:57:16.118Z,20.77
2023-01-18T04:59:48.131Z,28.73
2023-01-18T05:02:20.266Z,21.65
2023-01-18T05:04:52.307Z,19.80
2023-01-18T05:07:27.968Z,18.00
2023-01-18T05:10:01.256Z,15.27
2023-01-18T05:12:33.256Z,16.23
2023-01-18T05:15:06.268Z,15.45
2023-01-18T05:17:38.196Z,15.77
2023-01-18T05:20:11.935Z,15.32
2023-01-18T05:22:44.170Z,14.55
2023-01-18T05:25:16.077Z,13.93
2023-01-18T05:27:48.013Z,14.05
2023-01-18T05:30:19.985Z,13.68
2023-01-18T05:32:51.971Z,14.68
2023-01-18T05:35:23.831Z,14.10
2023-01-18T05:37:55.844Z,14.32
2023-01-18T05:40:27.954Z,13.93
2023-01-18T05:43:00.328Z,14.20
2023-01-18T05:45:32.380Z,13.38
2023-01-18T05:48:04.658Z,14.23
2023-01-18T05:50:39.572Z,14.05
2023-01-18T05:53:12.203Z,14.07
2023-01-18T05:55:45.050Z,13.13
2023-01-18T05:58:16.962Z,13.65
2023-01-18T06:00:49.145Z,13.88
2023-01-18T06:03:21.955Z,12.57
2023-01-18T06:05:53.974Z,13.90
2023-01-18T06:08:26.176Z,13.38
2023-01-18T06:10:59.561Z,12.95
2023-01-18T06:13:32.194Z,12.15
2023-01-18T06:16:04.423Z,12.68
2023-01-18T06:18:37.387Z,12.68
2023-01-18T06:21:11.135Z,11.38
2023-01-18T06:23:43.034Z,11.07
2023-01-18T06:26:15.375Z,12.30
2023-01-18T06:28:47.339Z,11.50
2023-01-18T06:31:19.252Z,10.48
2023-01-18T06:33:51.238Z,10.50
2023-01-18T06:36:23.249Z,10.40
2023-01-18T06:38:55.389Z,9.63
2023-01-18T06:41:27.369Z,10.85
2023-01-18T06:43:59.323Z,9.45
2023-01-18T06:46:31.444Z,9.75
2023-01-18T06:49:03.458Z,10.38
2023-01-18T06:51:35.583Z,10.80
2023-01-18T06:54:07.756Z,9.23
2023-01-18T06:56:40.307Z,9.82
2023-01-18T06:59:12.448Z,9.90
2023-01-18T07:01:44.564Z,8.90
2023-01-18T07:04:16.660Z,9.90
2023-01-18T07:06:48.729Z,8.90
2023-01-18T07:09:20.666Z,8.25
2023-01-18T07:11:52.606Z,8.57
2023-01-18T07:14:24.576Z,8.00
2023-01-18T07:16:56.637Z,9.07
2023-01-18T07:19:28.695Z,9.02
2023-01-18T07:22:01.911Z,9.40
2023-01-18T07:24:33.888Z,8.23
2023-01-18T07:27:05.755Z,7.30
2023-01-18T07:29:37.722Z,7.70
2023-01-18T07:32:09.725Z,6.25
2023-01-18T07:34:41.734Z,7.47
2023-01-18T07:37:14.768Z,6.47
2023-01-18T07:39:46.688Z,6.35
2023-01-18T07:42:19.698Z,6.65
2023-01-18T07:44:51.551Z,7.43
2023-01-18T07:47:23.530Z,6.85
2023-01-18T07:49:55.400Z,6.43
2023-01-18T07:52:27.435Z,7.07
2023-01-18T07:54:59.354Z,6.65
2023-01-18T07:57:31.459Z,6.10
2023-01-18T08:00:04.676Z,5.97
2023-01-18T08:02:36.677Z,6.00
2023-01-18T08:05:10.812Z,5.22
2023-01-18T08:07:43.243Z,5.35
2023-01-18T08:10:15.850Z,5.82
2023-01-18T08:12:48.028Z,6.65
2023-01-18T08:15:19.948Z,5.70
2023-01-18T08:17:51.902Z,6.55
2023-01-18T08:20:24.067Z,5.50
2023-01-18T08:22:58.063Z,5.70
2023-01-18T08:25:33.635Z,5.40
2023-01-18T08:28:06.465Z,5.30
2023-01-18T08:30:41.394Z,5.50
2023-01-18T08:33:13.985Z,6.47
2023-01-18T08:35:48.206Z,7.57
2023-01-18T08:38:20.147Z,5.40
2023-01-18T08:40:52.087Z,4.97
2023-01-18T08:43:24.595Z,5.00
2023-01-18T08:45:56.545Z,5.30
2023-01-18T08:48:28.522Z,5.38
2023-01-18T08:51:02.699Z,4.45
2023-01-18T08:53:34.664Z,4.95
2023-01-18T08:56:07.106Z,5.38
2023-01-18T08:58:39.127Z,4.80
2023-01-18T09:01:11.571Z,4.85
2023-01-18T09:03:43.716Z,5.20
2023-01-18T09:06:17.100Z,5.80
2023-01-18T09:08:49.394Z,5.03
2023-01-18T09:11:21.364Z,5.63
2023-01-18T09:14:02.642Z,5.05
2023-01-18T09:16:34.599Z,4.55
2023-01-18T09:19:06.777Z,4.20
2023-01-18T09:21:38.866Z,5.03
2023-01-18T09:24:10.814Z,4.32
2023-01-18T09:26:45.091Z,5.57
2023-01-18T09:29:17.223Z,5.20
2023-01-18T09:31:49.684Z,4.55
2023-01-18T09:34:22.236Z,5.50
2023-01-18T09:36:54.276Z,5.72
2023-01-18T09:39:26.405Z,5.50
2023-01-18T09:42:01.775Z,5.00
2023-01-18T09:44:41.017Z,5.03
2023-01-18T09:47:24.659Z,6.22
2023-01-18T09:49:58.798Z,6.63
2023-01-18T09:52:33.744Z,6.00
2023-01-18T09:55:05.641Z,6.50
2023-01-18T09:57:52.588Z,6.57
2023-01-18T10:00:27.745Z,7.25
2023-01-18T10:03:15.548Z,8.85
2023-01-18T10:06:08.755Z,9.75
2023-01-18T10:09:04.693Z,10.57
2023-01-18T10:11:45.042Z,9.65
2023-01-18T10:15:10.718Z,11.18
2023-01-18T10:17:43.925Z,11.77
2023-01-18T10:20:47.695Z,12.35
2023-01-18T10:23:44.646Z,13.88
2023-01-18T10:26:38.882Z,9.25
2023-01-18T10:29:35.473Z,10.57
2023-01-18T10:32:18.088Z,11.77
2023-01-18T10:34:52.200Z,14.75
2023-01-18T10:37:40.525Z,15.32
2023-01-18T10:40:15.026Z,13.93
2023-01-18T10:42:57.003Z,17.30
2023-01-18T10:45:32.615Z,13.55
2023-01-18T10:48:28.462Z,10.60
2023-01-18T10:51:09.170Z,10.20
2023-01-18T10:53:41.754Z,14.13
2023-01-18T10:56:18.245Z,10.43
2023-01-18T10:59:01.442Z,10.70
2023-01-18T11:01:36.755Z,10.60
2023-01-18T11:04:23.130Z,9.55
2023-01-18T11:07:01.468Z,10.63
2023-01-18T11:09:36.559Z,11.85
2023-01-18T11:12:41.529Z,13.88
2023-01-18T11:15:16.528Z,13.10
2023-01-18T11:18:11.721Z,14.80
2023-01-18T11:20:49.016Z,16.08
2023-01-18T11:23:29.974Z,12.55
2023-01-18T11:26:05.950Z,16.67
2023-01-18T11:28:59.974Z,13.38
2023-01-18T11:31:46.131Z,21.27
2023-01-18T11:34:32.003Z,21.42
2023-01-18T11:37:18.715Z,21.95
2023-01-18T11:39:50.598Z,25.02
2023-01-18T11:42:30.668Z,28.58
2023-01-18T11:45:26.052Z,25.50
2023-01-18T11:48:14.044Z,27.33
2023-01-18T11:50:55.371Z,26.92
2023-01-18T11:53:57.028Z,14.07
2023-01-18T11:56:41.109Z,14.88
2023-01-18T11:59:26.495Z,15.80
2023-01-18T12:02:07.433Z,12.18
2023-01-18T12:04:54.616Z,10.32
2023-01-18T12:07:55.855Z,12.52
2023-01-18T12:10:38.491Z,17.20
2023-01-18T12:13:48.129Z,13.95
2023-01-18T12:16:23.961Z,10.50
2023-01-18T12:19:29.874Z,16.45
2023-01-18T12:22:09.550Z,15.70
2023-01-18T12:25:10.837Z,13.43
2023-01-18T12:28:07.793Z,13.88
2023-01-18T12:30:39.776Z,12.55
2023-01-18T12:33:43.520Z,14.90
2023-01-18T12:36:58.692Z,14.90
2023-01-18T12:40:01.540Z,15.75
2023-01-18T12:42:40.799Z,90.72
2023-01-18T12:45:42.780Z,88.00
2023-01-18T12:48:30.346Z,221.43
2023-01-18T12:51:12.135Z,23.80
2023-01-18T12:53:53.785Z,23.83
2023-01-18T12:56:39.616Z,38.72
2023-01-18T12:59:29.064Z,19.08
2023-01-18T13:02:13.098Z,60.05
2023-01-18T13:05:05.269Z,28.45
2023-01-18T13:07:55.620Z,17.80
2023-01-18T13:10:29.178Z,21.35
2023-01-18T13:13:03.900Z,14.85
2023-01-18T13:15:48.551Z,14.13
2023-01-18T13:18:33.495Z,17.38
2023-01-18T13:21:31.464Z,16.17
2023-01-18T13:24:09.424Z,21.63
2023-01-18T13:26:42.039Z,39.10
2023-01-18T13:29:26.577Z,35.60
2023-01-18T13:31:58.802Z,42.75
2023-01-18T13:34:32.952Z,39.88
2023-01-18T13:37:14.909Z,33.63
2023-01-18T13:39:48.555Z,27.88
2023-01-18T13:42:23.229Z,37.22
2023-01-18T13:45:18.170Z,35.97
2023-01-18T13:48:18.410Z,29.02
2023-01-18T13:50:52.604Z,27.42
2023-01-18T13:53:25.918Z,29.80
2023-01-18T13:56:00.813Z,27.45
2023-01-18T13:58:34.978Z,24.67
2023-01-18T14:01:19.898Z,18.00
2023-01-18T14:03:53.469Z,16.52
2023-01-18T14:06:30.891Z,21.20
2023-01-18T14:09:14.902Z,22.17
2023-01-18T14:11:55.894Z,19.80
2023-01-18T14:14:35.132Z,18.08
2023-01-18T14:17:08.301Z,19.95
2023-01-18T14:19:49.254Z,21.55
2023-01-18T14:22:52.243Z,19.42
2023-01-18T14:25:39.385Z,26.30
2023-01-18T14:28:20.291Z,20.00
2023-01-18T14:30:58.897Z,22.95
2023-01-18T14:33:38.536Z,23.17
2023-01-18T14:36:24.254Z,50.40
2023-01-18T14:39:17.984Z,20.17
2023-01-18T14:41:55.692Z,27.27
2023-01-18T14:44:56.433Z,26.70
2023-01-18T14:47:32.883Z,23.35
2023-01-18T14:50:12.092Z,21.33
2023-01-18T14:52:43.962Z,23.38
2023-01-18T14:55:31.810Z,20.70
2023-01-18T14:58:17.054Z,23.10
2023-01-18T15:00:52.246Z,23.65
2023-01-18T15:03:27.675Z,22.45
2023-01-18T15:06:06.484Z,28.17
2023-01-18T15:08:40.834Z,28.13
2023-01-18T15:11:14.060Z,27.55
2023-01-18T15:13:50.602Z,28.15
2023-01-18T15:16:27.287Z,27.23
2023-01-18T15:18:59.397Z,32.58
2023-01-18T15:21:35.603Z,29.77
2023-01-18T15:24:10.557Z,27.27
2023-01-18T15:26:50.764Z,52.15
2023-01-18T15:29:26.236Z,23.08
2023-01-18T15:32:03.514Z,17.15
2023-01-18T15:34:37.649Z,33.38
2023-01-18T15:37:15.814Z,19.95
2023-01-18T15:39:58.513Z,21.20
2023-01-18T15:42:43.290Z,21.25
2023-01-18T15:45:31.914Z,43.70
2023-01-18T15:48:18.640Z,32.17
2023-01-18T15:50:57.486Z,20.88
2023-01-18T15:53:32.810Z,18.73
2023-01-18T15:56:14.926Z,30.35
2023-01-18T15:58:50.460Z,26.45
2023-01-18T16:01:32.055Z,28.98
2023-01-18T16:04:20.198Z,29.45
2023-01-18T16:06:52.198Z,21.50
2023-01-18T16:09:24.639Z,23.33
2023-01-18T16:12:00.652Z,19.38
2023-01-18T16:14:38.734Z,28.25
2023-01-18T16:17:10.605Z,25.67
2023-01-18T16:19:45.470Z,25.35
2023-01-18T16:22:38.871Z,36.30
2023-01-18T16:25:21.274Z,32.22
2023-01-18T16:27:55.719Z,25.13
2023-01-18T16:30:39.867Z,26.02
2023-01-18T16:33:18.965Z,41.10
2023-01-18T16:35:51.198Z,26.05
2023-01-18T16:38:24.179Z,26.60
2023-01-18T16:40:59.022Z,30.83
2023-01-18T16:43:34.338Z,31.73
2023-01-18T16:46:06.625Z,28.83
2023-01-18T16:48:38.651Z,33.60
2023-01-18T16:51:14.548Z,30.60
2023-01-18T16:53:47.472Z,35.22
2023-01-18T16:56:19.689Z,28.27
2023-01-18T16:58:51.829Z,25.23
2023-01-18T17:01:24.491Z,27.17
2023-01-18T17:03:56.446Z,31.85
2023-01-18T17:06:29.723Z,34.33
2023-01-18T17:09:01.675Z,35.05
2023-01-18T17:11:33.594Z,41.45
2023-01-18T17:14:05.568Z,48.03
2023-01-18T17:16:37.526Z,28.15
2023-01-18T17:19:20.816Z,27.73
2023-01-18T17:21:52.803Z,22.83
2023-01-18T17:24:25.761Z,25.25
2023-01-18T17:26:57.756Z,27.98
2023-01-18T17:29:29.965Z,26.10
2023-01-18T17:32:01.933Z,40.50
2023-01-18T17:34:33.876Z,33.83
2023-01-18T17:37:05.803Z,34.05
2023-01-18T17:39:49.944Z,33.72
2023-01-18T17:42:30.554Z,30.35
2023-01-18T17:45:03.500Z,25.13
2023-01-18T17:47:36.028Z,25.95
2023-01-18T17:50:11.372Z,31.77
2023-01-18T17:52:43.992Z,28.48
2023-01-18T17:55:17.875Z,29.00
2023-01-18T17:57:52.588Z,34.53
2023-01-18T18:00:26.289Z,27.42
2023-01-18T18:03:00.398Z,25.13
2023-01-18T18:05:33.022Z,22.77
2023-01-18T18:08:05.216Z,20.88
2023-01-18T18:10:37.207Z,21.48
2023-01-18T18:13:09.189Z,22.52
2023-01-18T18:15:46.194Z,26.35
2023-01-18T18:18:23.040Z,29.30
2023-01-18T18:21:06.424Z,26.27
2023-01-18T18:23:38.575Z,44.47
2023-01-18T18:26:10.523Z,51.58
2023-01-18T18:28:42.447Z,39.05
2023-01-18T18:31:16.476Z,33.65
2023-01-18T18:33:48.476Z,33.25
2023-01-18T18:36:21.655Z,27.15
2023-01-18T18:38:53.740Z,23.95
2023-01-18T18:41:25.692Z,25.30
2023-01-18T18:44:00.584Z,20.40
2023-01-18T18:46:32.609Z,21.75
2023-01-18T18:49:05.960Z,24.02
2023-01-18T18:51:37.927Z,23.20
2023-01-18T18:54:13.012Z,25.55
2023-01-18T18:56:45.010Z,26.13
2023-01-18T18:59:17.052Z,44.15
2023-01-18T19:01:55.163Z,29.25
2023-01-18T19:04:27.138Z,24.10
2023-01-18T19:06:59.164Z,29.63
2023-01-18T19:09:32.360Z,30.33
2023-01-18T19:12:04.496Z,25.52
2023-01-18T19:14:36.364Z,25.60
2023-01-18T19:17:10.152Z,27.00
2023-01-18T19:19:42.614Z,25.00
2023-01-18T19:22:14.839Z,25.77
2023-01-18T19:24:48.005Z,28.30
2023-01-18T19:27:21.436Z,26.00
2023-01-18T19:29:53.588Z,26.50
2023-01-18T19:32:25.910Z,32.05
2023-01-18T19:34:57.911Z,28.40
2023-01-18T19:37:29.906Z,32.08
2023-01-18T19:40:01.833Z,36.15
2023-01-18T19:42:33.775Z,32.50
2023-01-18T19:45:08.222Z,31.30
2023-01-18T19:47:42.153Z,42.33
2023-01-18T19:50:14.574Z,35.47
2023-01-18T19:52:46.654Z,35.30
2023-01-18T19:55:18.952Z,31.98
2023-01-18T19:57:52.654Z,32.40
2023-01-18T20:00:24.727Z,31.60
2023-01-18T20:02:56.696Z,33.92
2023-01-18T20:05:28.797Z,47.55
2023-01-18T20:08:00.795Z,108.25
2023-01-18T20:10:32.776Z,111.30
2023-01-18T20:13:05.005Z,61.95
2023-01-18T20:15:41.255Z,100.95
2023-01-18T20:18:13.978Z,118.93
2023-01-18T20:20:46.029Z,58.17
2023-01-18T20:23:17.975Z,60.65
2023-01-18T20:25:53.849Z,46.05
2023-01-18T20:28:26.385Z,33.45
2023-01-18T20:30:59.907Z,39.10
2023-01-18T20:33:33.407Z,31.85
2023-01-18T20:36:06.632Z,28.58
2023-01-18T20:38:38.531Z,28.48
2023-01-18T20:41:11.145Z,31.73
2023-01-18T20:43:43.102Z,30.88
2023-01-18T20:46:15.043Z,29.90
2023-01-18T20:48:46.931Z,41.38
2023-01-18T20:51:19.065Z,40.30
2023-01-18T20:53:51.123Z,32.58
2023-01-18T20:56:29.297Z,36.63
2023-01-18T20:59:01.633Z,31.52
2023-01-18T21:01:33.810Z,32.47
2023-01-18T21:04:06.112Z,31.40
2023-01-18T21:06:38.108Z,32.80
2023-01-18T21:09:10.140Z,33.47
2023-01-18T21:11:42.073Z,28.25
2023-01-18T21:14:14.363Z,31.83
2023-01-18T21:16:46.839Z,33.63
2023-01-18T21:19:19.212Z,31.15
2023-01-18T21:21:51.323Z,37.40
2023-01-18T21:24:23.383Z,36.55
2023-01-18T21:26:55.313Z,34.13
2023-01-18T21:29:27.601Z,32.85
2023-01-18T21:31:59.814Z,30.67
2023-01-18T21:34:31.998Z,29.65
2023-01-18T21:37:04.093Z,31.48
2023-01-18T21:39:36.746Z,31.17
2023-01-18T21:42:29.381Z,36.40
2023-01-18T21:45:20.087Z,34.03
2023-01-18T21:47:52.112Z,33.72
2023-01-18T21:50:42.651Z,31.85
2023-01-18T21:53:34.102Z,29.02
2023-01-18T21:56:06.438Z,29.63
2023-01-18T21:58:53.807Z,30.67
2023-01-18T22:01:34.332Z,29.58
2023-01-18T22:04:27.594Z,29.92
2023-01-18T22:07:00.116Z,27.80
2023-01-18T22:09:32.070Z,33.58
2023-01-18T22:12:04.269Z,36.50
2023-01-18T22:14:36.215Z,34.78
2023-01-18T22:17:08.895Z,36.53
2023-01-18T22:19:44.170Z,36.30
2023-01-18T22:22:16.192Z,33.25
2023-01-18T22:24:48.114Z,34.83
2023-01-18T22:27:20.215Z,34.15
2023-01-18T22:29:52.139Z,32.33
2023-01-18T22:32:24.175Z,45.25
2023-01-18T22:34:56.511Z,37.20
2023-01-18T22:37:28.488Z,35.10
2023-01-18T22:40:00.675Z,48.20
2023-01-18T22:42:35.675Z,46.40
2023-01-18T22:45:08.208Z,39.85
2023-01-18T22:47:40.136Z,34.85
2023-01-18T22:50:12.389Z,48.67
2023-01-18T22:52:44.489Z,43.83
2023-01-18T22:55:17.026Z,37.55
2023-01-18T22:57:49.030Z,35.10
2023-01-18T23:00:20.912Z,36.65
2023-01-18T23:02:53.070Z,46.95
2023-01-18T23:05:25.013Z,43.97
2023-01-18T23:07:57.541Z,52.33
2023-01-18T23:10:29.824Z,45.40
2023-01-18T23:13:01.939Z,39.42
2023-01-18T23:15:52.412Z,32.13
2023-01-18T23:18:24.369Z,33.30
2023-01-18T23:21:00.629Z,32.63
2023-01-18T23:23:32.747Z,37.03
2023-01-18T23:26:04.895Z,38.30
2023-01-18T23:28:42.720Z,37.33
2023-01-18T23:31:17.361Z,34.28
2023-01-18T23:33:49.302Z,37.25
2023-01-18T23:36:21.216Z,34.65
2023-01-18T23:39:12.252Z,38.28
2023-01-18T23:42:02.766Z,32.08
2023-01-18T23:44:53.435Z,32.45
2023-01-18T23:47:44.124Z,32.67
2023-01-18T23:50:34.706Z,33.20
2023-01-18T23:53:29.206Z,32.08
2023-01-18T23:56:01.394Z,32.85
2023-01-18T23:58:33.378Z,31.88
